Time;durP1;ratioP1;P1;durP2;ratioP2;P2;SDS_P1;SDS_P2;PMS_P1;PMS_P2;Temp;Humidity;BMP_temperature;BMP_pressure;BME280_temperature;BME280_humidity;BME280_pressure;Samples;Min_cycle;Max_cycle;Signal;HPM_P1;HPM_P2
2022/11/02 00:01:41;;;;;;;;;;;;;;;8.98;100.00;100542.25;4974138;28;19926;-82
2022/11/02 00:04:06;;;;;;;;;;;;;;;9.01;100.00;100544.22;4977763;28;19977;-83
2022/11/02 00:06:32;;;;;;;;;;;;;;;9.06;100.00;100540.97;5008472;28;20068;-83
2022/11/02 00:08:57;;;;;;;;;;;;;;;9.03;100.00;100543.78;4989301;28;19925;-83
2022/11/02 00:11:22;;;;;;;;;;;;;;;9.03;100.00;100546.56;4991273;28;20451;-83
2022/11/02 00:13:48;;;;;;;;;;;;;;;9.03;100.00;100547.34;4991726;28;20753;-83
2022/11/02 00:16:14;;;;;;;;;;;;;;;9.06;100.00;100549.28;4990491;28;20416;-83
2022/11/02 00:18:39;;;;;;;;;;;;;;;9.04;100.00;100548.91;4975290;28;20500;-83
2022/11/02 00:21:05;;;;;;;;;;;;;;;9.07;100.00;100555.59;4975586;28;19914;-83
2022/11/02 00:23:30;;;;;;;;;;;;;;;9.09;100.00;100551.25;4994216;28;20288;-83
2022/11/02 00:25:56;;;;;;;;;;;;;;;9.09;100.00;100542.94;4992799;28;19949;-83
2022/11/02 00:28:21;;;;;;;;;;;;;;;9.09;100.00;100551.25;4959853;28;20345;-83
2022/11/02 00:30:46;;;;;;;;;;;;;;;9.13;100.00;100557.50;4971972;28;20009;-83
2022/11/02 00:33:12;;;;;;;;;;;;;;;9.13;100.00;100557.50;4992208;28;19965;-83
2022/11/02 00:35:38;;;;;;;;;;;;;;;9.21;100.00;100564.53;4989668;28;20188;-83
2022/11/02 00:38:03;;;;;;;;;;;;;;;9.27;100.00;100564.84;4989567;28;19926;-83
2022/11/02 00:40:29;;;;;;;;;;;;;;;9.30;100.00;100573.09;4972364;28;19918;-83
2022/11/02 00:42:54;;;;;;;;;;;;;;;9.38;100.00;100573.00;4970533;28;19917;-83
2022/11/02 00:45:21;;;;;;;;;;;;;;;9.38;100.00;100568.25;4988511;28;20026;-82
2022/11/02 00:47:46;;;;;;;;;;;;;;;9.41;100.00;100572.19;4988131;28;19918;-83
2022/11/02 00:50:12;;;;;;;;;;;;;;;9.41;100.00;100566.63;4987599;28;19925;-82
2022/11/02 00:52:39;;;;;;;;;;;;;;;9.42;100.00;100562.69;4972196;28;20392;-83
2022/11/02 00:55:05;;;;;;;;;;;;;;;9.39;100.00;100555.97;4981891;28;19925;-84
2022/11/02 00:57:31;;;;;;;;;;;;;;;9.42;100.00;100554.38;4987690;28;19997;-83
2022/11/02 00:59:56;;;;;;;;;;;;;;;9.41;100.00;100566.63;4973687;28;19910;-83
2022/11/02 01:02:21;;;;;;;;;;;;;;;9.42;100.00;100560.69;4990612;28;19945;-83
2022/11/02 01:04:47;;;;;;;;;;;;;;;9.44;100.00;100563.03;4973106;28;19918;-83
2022/11/02 01:07:12;;;;;;;;;;;;;;;9.41;100.00;100558.34;4991385;28;20008;-83
2022/11/02 01:09:37;;;;;;;;;;;;;;;9.34;100.00;100557.22;4982022;28;20005;-83
2022/11/02 01:12:04;;;;;;;;;;;;;;;9.29;100.00;100554.94;4992313;28;19938;-83
2022/11/02 01:14:29;;;;;;;;;;;;;;;9.28;100.00;100558.88;4973651;28;19924;-83
2022/11/02 01:16:56;;;;;;;;;;;;;;;9.23;100.00;100556.56;4971125;28;20530;-83
2022/11/02 01:19:22;;;;;;;;;;;;;;;9.29;100.00;100571.53;4988588;28;19918;-83
2022/11/02 01:21:47;;;;;;;;;;;;;;;9.26;100.00;100566.06;4977299;28;19968;-83
2022/11/02 01:24:13;;;;;;;;;;;;;;;9.25;100.00;100561.72;4985880;28;20481;-83
2022/11/02 01:26:38;;;;;;;;;;;;;;;9.27;100.00;100568.38;4964360;28;20305;-83
2022/11/02 01:29:03;;;;;;;;;;;;;;;9.28;100.00;100569.19;4991117;28;19922;-83
2022/11/02 01:31:29;;;;;;;;;;;;;;;9.35;100.00;100563.53;4991420;28;20017;-83
2022/11/02 01:33:54;;;;;;;;;;;;;;;9.40;100.00;100565.84;4991779;28;19918;-83
2022/11/02 01:36:20;;;;;;;;;;;;;;;9.43;100.00;100567.00;4984386;28;19921;-83
2022/11/02 01:38:45;;;;;;;;;;;;;;;9.42;100.00;100569.00;4991360;28;20008;-83
2022/11/02 01:41:11;;;;;;;;;;;;;;;9.47;100.00;100568.50;4991272;28;19921;-83
2022/11/02 01:43:37;;;;;;;;;;;;;;;9.51;100.00;100579.53;4971283;28;20439;-83
2022/11/02 01:46:11;;;;;;;;;;;;;;;9.60;100.00;100585.34;4980748;28;19944;-83
2022/11/02 01:48:45;;;;;;;;;;;;;;;9.65;100.00;100582.13;5003787;28;20048;-83
2022/11/02 01:51:26;;;;;;;;;;;;;;;9.68;100.00;100581.28;4980001;28;20397;-83
2022/11/02 01:53:52;;;;;;;;;;;;;;;9.72;100.00;100582.81;4981346;28;19918;-83
2022/11/02 01:56:18;;;;;;;;;;;;;;;9.77;100.00;100581.56;4973677;28;20114;-83
2022/11/02 01:58:45;;;;;;;;;;;;;;;9.76;100.00;100571.66;4972609;28;19926;-83
2022/11/02 02:01:11;;;;;;;;;;;;;;;9.75;100.00;100575.63;4986124;28;19918;-83
2022/11/02 02:03:36;;;;;;;;;;;;;;;9.73;100.00;100580.81;4987810;28;19925;-83
2022/11/02 02:06:03;;;;;;;;;;;;;;;9.74;100.00;100585.97;4986570;28;19975;-83
2022/11/02 02:08:29;;;;;;;;;;;;;;;9.72;100.00;100587.56;4988317;28;20044;-83
2022/11/02 02:10:55;;;;;;;;;;;;;;;9.70;100.00;100584.44;4988169;28;20019;-83
2022/11/02 02:13:20;;;;;;;;;;;;;;;9.71;100.00;100585.97;4986910;28;19922;-83
2022/11/02 02:16:04;;;;;;;;;;;;;;;9.73;100.00;100578.84;4969435;28;20301;-83
2022/11/02 02:18:31;;;;;;;;;;;;;;;9.73;100.00;100572.50;4984088;28;19973;-83
2022/11/02 02:21:10;;;;;;;;;;;;;;;9.73;100.00;100564.19;4968087;28;19992;-83
2022/11/02 02:23:45;;;;;;;;;;;;;;;9.75;100.00;100575.63;4989520;28;19921;-83
2022/11/02 02:26:16;;;;;;;;;;;;;;;9.74;100.00;100568.53;4970179;28;19918;-83
2022/11/02 02:28:44;;;;;;;;;;;;;;;9.76;100.00;100566.13;4992120;28;19929;-83
2022/11/02 02:31:13;;;;;;;;;;;;;;;9.77;100.00;100576.00;4969489;28;20385;-83
2022/11/02 02:33:42;;;;;;;;;;;;;;;9.76;100.00;100580.75;4979065;28;19921;-83
2022/11/02 02:36:26;;;;;;;;;;;;;;;9.77;100.00;100573.25;4972383;28;19922;-83
2022/11/02 02:39:04;;;;;;;;;;;;;;;9.79;100.00;100573.59;4990667;28;20020;-83
2022/11/02 02:41:29;;;;;;;;;;;;;;;9.79;100.00;100568.06;4981849;28;20368;-83
2022/11/02 02:43:55;;;;;;;;;;;;;;;9.77;100.00;100568.50;4986180;28;19925;-83
2022/11/02 02:46:46;;;;;;;;;;;;;;;9.77;100.00;100567.69;4983438;28;19964;-83
2022/11/02 02:49:14;;;;;;;;;;;;;;;9.77;100.00;100568.50;4942493;28;20172;-84
2022/11/02 02:51:40;;;;;;;;;;;;;;;9.77;100.00;100573.25;4968857;28;19925;-83
2022/11/02 02:54:08;;;;;;;;;;;;;;;9.78;100.00;100574.81;4986643;28;20041;-83
2022/11/02 02:56:35;;;;;;;;;;;;;;;9.79;100.00;100570.81;4978251;28;19988;-84
2022/11/02 02:59:04;;;;;;;;;;;;;;;9.85;100.00;100577.47;4972797;28;20040;-83
2022/11/02 03:01:30;;;;;;;;;;;;;;;9.87;100.00;100577.81;4969420;28;19918;-83
2022/11/02 03:03:55;;;;;;;;;;;;;;;9.90;100.00;100581.75;4970546;28;20445;-83
2022/11/02 03:06:30;;;;;;;;;;;;;;;9.93;100.00;100575.38;4972020;28;20297;-83
2022/11/02 03:09:04;;;;;;;;;;;;;;;9.99;100.00;100571.69;4990149;28;19926;-83
2022/11/02 03:11:30;;;;;;;;;;;;;;;10.01;100.00;100583.16;4972094;28;19922;-83
2022/11/02 03:14:06;;;;;;;;;;;;;;;10.00;100.00;100587.13;4986975;28;20367;-83
2022/11/02 03:16:39;;;;;;;;;;;;;;;9.94;100.00;100588.81;4971381;28;19980;-82
2022/11/02 03:19:39;;;;;;;;;;;;;;;9.91;100.00;100597.94;4970917;28;19918;-84
2022/11/02 03:22:05;;;;;;;;;;;;;;;9.89;100.00;100586.50;4947244;28;19917;-84
2022/11/02 03:24:42;;;;;;;;;;;;;;;9.88;100.00;100589.69;4990383;28;19917;-82
2022/11/02 03:27:14;;;;;;;;;;;;;;;9.89;100.00;100597.59;4986706;28;19922;-82
2022/11/02 03:29:58;;;;;;;;;;;;;;;9.89;100.00;100596.81;4990343;28;20381;-82
2022/11/02 03:32:24;;;;;;;;;;;;;;;9.85;100.00;100596.88;4972149;28;19932;-84
2022/11/02 03:34:51;;;;;;;;;;;;;;;9.84;100.00;100595.28;4973052;28;19945;-82
2022/11/02 03:37:19;;;;;;;;;;;;;;;9.86;100.00;100592.13;4988903;28;19926;-82
2022/11/02 03:39:48;;;;;;;;;;;;;;;9.85;100.00;100585.78;4972457;28;19924;-82
2022/11/02 03:42:15;;;;;;;;;;;;;;;9.86;100.00;100587.38;4968933;28;19918;-84
2022/11/02 03:44:42;;;;;;;;;;;;;;;9.86;100.00;100583.81;5002275;23;20395;-80
2022/11/02 03:47:09;;;;;;;;;;;;;;;9.88;100.00;100573.84;4970299;28;19918;-80
2022/11/02 03:49:36;;;;;;;;;;;;;;;9.89;100.00;100574.66;4971332;28;19922;-80
2022/11/02 03:52:02;;;;;;;;;;;;;;;9.88;100.00;100579.41;4971219;28;19924;-80
2022/11/02 03:54:31;;;;;;;;;;;;;;;9.86;100.00;100586.56;4985317;28;19995;-80
2022/11/02 03:56:57;;;;;;;;;;;;;;;9.84;100.00;100584.22;4983375;28;20375;-80
2022/11/02 03:59:22;;;;;;;;;;;;;;;9.84;100.00;100589.75;4970884;28;19918;-80
2022/11/02 04:01:48;;;;;;;;;;;;;;;9.86;100.00;100586.56;4981912;28;20006;-80
2022/11/02 04:04:14;;;;;;;;;;;;;;;9.87;100.00;100583.38;4967425;28;20280;-80
2022/11/02 04:06:40;;;;;;;;;;;;;;;9.89;100.00;100586.50;4967515;28;21131;-80
2022/11/02 04:09:06;;;;;;;;;;;;;;;9.92;100.00;100580.13;4968408;28;19949;-80
2022/11/02 04:19:49;;;;;;;;;;;;;;;9.92;100.00;100582.91;4983951;28;20367;-78
2022/11/02 04:25:19;;;;;;;;;;;;;;;9.96;100.00;100575.31;4958158;28;20038;-91
2022/11/02 04:28:10;;;;;;;;;;;;;;;9.99;100.00;100580.00;4981507;28;20004;-91
2022/11/02 04:30:42;;;;;;;;;;;;;;;10.01;100.00;100580.38;4974794;28;19953;-92
2022/11/02 04:35:58;;;;;;;;;;;;;;;9.97;100.00;100582.44;5000265;28;19921;-93
2022/11/02 04:38:39;;;;;;;;;;;;;;;9.94;100.00;100583.28;4984005;28;19906;-90
2022/11/02 04:43:59;;;;;;;;;;;;;;;9.91;100.00;100583.34;4997522;28;19918;-92
2022/11/02 04:46:26;;;;;;;;;;;;;;;9.92;100.00;100587.66;4983138;28;19929;-90
2022/11/02 04:48:51;;;;;;;;;;;;;;;9.92;100.00;100591.22;4993803;28;19940;-92
2022/11/02 04:51:19;;;;;;;;;;;;;;;9.95;100.00;100589.59;4996303;28;19918;-92
2022/11/02 04:53:45;;;;;;;;;;;;;;;9.94;100.00;100588.81;4992632;28;19913;-89
2022/11/02 04:56:11;;;;;;;;;;;;;;;9.94;100.00;100583.28;4986162;28;19906;-92
2022/11/02 04:58:37;;;;;;;;;;;;;;;9.97;100.00;100582.44;4991902;28;19922;-79
2022/11/02 05:01:07;;;;;;;;;;;;;;;10.01;100.00;100583.16;4984502;28;19937;-93
2022/11/02 05:03:32;;;;;;;;;;;;;;;10.02;100.00;100570.88;4999363;28;19973;-92
2022/11/02 05:05:58;;;;;;;;;;;;;;;10.03;100.00;100577.22;4995467;28;19981;-92
2022/11/02 05:08:23;;;;;;;;;;;;;;;10.04;100.00;100576.78;4970795;28;20525;-91
2022/11/02 05:10:52;;;;;;;;;;;;;;;10.04;100.00;100576.78;4988586;28;20418;-92
2022/11/02 05:13:17;;;;;;;;;;;;;;;10.04;100.00;100582.31;4971902;28;19921;-91
2022/11/02 05:15:43;;;;;;;;;;;;;;;10.04;100.00;100579.53;4970039;28;19918;-92
2022/11/02 05:18:08;;;;;;;;;;;;;;;10.06;100.00;100588.25;4971189;28;19929;-79
2022/11/02 05:20:34;;;;;;;;;;;;;;;10.03;100.00;100586.28;4968887;28;19918;-93
2022/11/02 05:22:59;;;;;;;;;;;;;;;10.00;100.00;100583.56;4972608;28;19918;-93
2022/11/02 05:25:25;;;;;;;;;;;;;;;9.94;100.00;100588.81;4970019;28;19928;-91
2022/11/02 05:27:50;;;;;;;;;;;;;;;9.95;100.00;100592.38;4969212;28;19961;-92
2022/11/02 05:30:17;;;;;;;;;;;;;;;9.90;100.00;100584.53;4969572;28;19918;-92
2022/11/02 05:32:43;;;;;;;;;;;;;;;9.91;100.00;100584.09;4971042;28;19925;-91
2022/11/02 05:35:08;;;;;;;;;;;;;;;9.93;100.00;100576.16;4973140;28;20339;-91
2022/11/02 05:37:33;;;;;;;;;;;;;;;9.93;100.00;100570.63;4972081;28;19921;-91
2022/11/02 05:39:59;;;;;;;;;;;;;;;10.00;100.00;100592.66;4984319;28;20438;-79
2022/11/02 05:42:25;;;;;;;;;;;;;;;10.03;100.00;100597.38;4971821;28;20020;-79
2022/11/02 05:44:50;;;;;;;;;;;;;;;10.07;100.00;100600.88;4967803;28;20042;-79
2022/11/02 05:47:16;;;;;;;;;;;;;;;10.03;100.00;100600.13;4967738;28;19996;-79
2022/11/02 05:49:41;;;;;;;;;;;;;;;10.00;100.00;100603.75;4969169;28;19929;-79
2022/11/02 05:52:06;;;;;;;;;;;;;;;10.07;100.00;100623.03;4971784;28;19926;-80
2022/11/02 05:54:32;;;;;;;;;;;;;;;10.03;100.00;100618.78;4980214;28;19969;-79
2022/11/02 05:56:57;;;;;;;;;;;;;;;9.93;100.00;100620.50;4966410;28;19918;-79
2022/11/02 05:59:22;;;;;;;;;;;;;;;9.98;100.00;100625.59;4972385;28;19924;-93
2022/11/02 06:01:48;;;;;;;;;;;;;;;10.03;100.00;100624.31;4973980;28;19926;-93
2022/11/02 06:04:13;;;;;;;;;;;;;;;10.08;100.00;100627.38;4969313;28;20092;-92
2022/11/02 06:06:39;;;;;;;;;;;;;;;10.08;100.00;100635.72;4972910;28;20001;-94
2022/11/02 06:09:04;;;;;;;;;;;;;;;10.13;100.00;100640.78;4969365;28;19922;-92
2022/11/02 06:11:30;;;;;;;;;;;;;;;10.07;100.00;100648.00;4970485;28;20014;-95
2022/11/02 06:13:55;;;;;;;;;;;;;;;10.10;100.00;100657.47;4966809;28;19918;-93
2022/11/02 06:16:20;;;;;;;;;;;;;;;10.16;100.00;100661.34;4970281;28;19973;-93
2022/11/02 06:18:46;;;;;;;;;;;;;;;10.22;100.00;100671.56;4971360;28;19918;-92
2022/11/02 06:21:11;;;;;;;;;;;;;;;10.21;100.00;100670.00;4971186;28;19922;-93
2022/11/02 06:23:38;;;;;;;;;;;;;;;10.21;100.00;100664.44;4969789;28;19913;-92
2022/11/02 06:26:03;;;;;;;;;;;;;;;10.23;100.00;100659.25;4968566;28;19918;-92
2022/11/02 06:28:29;;;;;;;;;;;;;;;10.19;100.00;100660.53;4969269;28;19922;-94
2022/11/02 06:30:55;;;;;;;;;;;;;;;10.23;100.00;100656.50;4968306;28;19926;-92
2022/11/02 06:33:21;;;;;;;;;;;;;;;10.26;100.00;100666.75;4967199;28;19930;-94
2022/11/02 06:35:46;;;;;;;;;;;;;;;10.30;100.00;100663.94;4966721;28;20356;-80
2022/11/02 06:38:12;;;;;;;;;;;;;;;10.32;100.00;100658.72;4968501;28;20036;-80
2022/11/02 06:40:37;;;;;;;;;;;;;;;10.35;100.00;100668.22;4968973;28;19954;-80
2022/11/02 06:43:03;;;;;;;;;;;;;;;10.36;100.00;100669.75;4970122;28;20411;-80
2022/11/02 06:45:28;;;;;;;;;;;;;;;10.37;100.00;100683.22;4968466;28;19925;-80
2022/11/02 06:47:54;;;;;;;;;;;;;;;10.39;100.00;100682.81;4963587;28;20450;-78
2022/11/02 06:50:20;;;;;;;;;;;;;;;10.43;100.00;100683.53;4971654;28;19918;-78
2022/11/02 06:52:46;;;;;;;;;;;;;;;10.48;100.00;100683.81;4963824;28;19914;-78
2022/11/02 06:55:12;;;;;;;;;;;;;;;10.53;100.00;100686.13;4953244;28;20273;-78
2022/11/02 06:57:37;;;;;;;;;;;;;;;10.59;100.00;100683.69;4968397;28;20272;-77
2022/11/02 07:00:06;;;;;;;;;;;;;;;10.63;100.00;100689.94;4970926;28;19921;-78
2022/11/02 07:02:32;;;;;;;;;;;;;;;10.66;100.00;100691.88;4964460;28;20294;-77
2022/11/02 07:04:57;;;;;;;;;;;;;;;10.70;100.00;100690.63;4971174;28;19918;-78
2022/11/02 07:07:22;;;;;;;;;;;;;;;10.75;100.00;100678.25;4963988;28;19980;-78
2022/11/02 07:09:48;;;;;;;;;;;;;;;10.81;100.00;100684.09;4968700;28;19918;-77
2022/11/02 07:12:13;;;;;;;;;;;;;;;10.82;100.00;100686.44;4970917;28;20017;-78
2022/11/02 07:14:39;;;;;;;;;;;;;;;10.82;100.00;100692.00;4968707;28;20343;-78
2022/11/02 07:17:04;;;;;;;;;;;;;;;10.84;100.00;100695.13;4954773;28;19926;-77
2022/11/02 07:19:32;;;;;;;;;;;;;;;10.85;100.00;100707.78;4972046;28;19918;-78
2022/11/02 07:21:57;;;;;;;;;;;;;;;10.93;100.00;100703.69;4971553;28;20020;-78
2022/11/02 07:24:22;;;;;;;;;;;;;;;11.05;100.00;100700.31;4968194;28;20012;-78
2022/11/02 07:26:49;;;;;;;;;;;;;;;11.16;100.00;100706.44;4961773;28;19922;-78
2022/11/02 07:29:14;;;;;;;;;;;;;;;11.27;100.00;100694.34;4972197;28;20786;-92
2022/11/02 07:31:40;;;;;;;;;;;;;;;11.38;100.00;100692.94;4964533;28;19993;-91
2022/11/02 07:34:05;;;;;;;;;;;;;;;11.45;100.00;100703.13;4967815;28;19918;-92
2022/11/02 07:36:31;;;;;;;;;;;;;;;11.52;100.00;100703.00;4971145;28;19928;-92
2022/11/02 07:38:56;;;;;;;;;;;;;;;11.60;100.00;100704.44;4956265;28;20296;-92
2022/11/02 07:41:22;;;;;;;;;;;;;;;11.64;100.00;100705.13;4955454;28;19993;-92
2022/11/02 07:43:47;;;;;;;;;;;;;;;11.66;100.00;100713.81;4969265;28;19918;-92
2022/11/02 07:46:23;;;;;;;;;;;;;;;11.73;100.00;100716.47;4966784;28;20438;-91
2022/11/02 07:48:48;;;;;;;;;;;;;;;11.80;100.00;100715.56;4972002;28;20008;-92
2022/11/02 07:51:14;;;;;;;;;;;;;;;11.80;100.00;100710.78;4976600;28;19922;-93
2022/11/02 07:53:40;;;;;;;;;;;;;;;11.93;100.00;100703.34;4970413;28;19981;-78
2022/11/02 07:56:06;;;;;;;;;;;;;;;12.00;100.00;100711.53;4969318;28;19918;-78
2022/11/02 07:58:31;;;;;;;;;;;;;;;12.11;100.00;100708.53;4974969;28;19918;-78
2022/11/02 08:00:58;;;;;;;;;;;;;;;12.21;100.00;100713.06;4973797;28;19973;-78
2022/11/02 08:03:23;;;;;;;;;;;;;;;12.24;100.00;100711.41;4989797;28;19918;-78
2022/11/02 08:05:48;;;;;;;;;;;;;;;12.28;100.00;100712.13;4974524;28;20458;-78
2022/11/02 08:08:15;;;;;;;;;;;;;;;12.35;100.00;100698.81;4973656;28;19925;-78
2022/11/02 08:10:41;;;;;;;;;;;;;;;12.38;100.00;100708.28;4974392;28;19914;-78
2022/11/02 08:13:10;;;;;;;;;;;;;;;12.49;100.00;100708.84;4973465;28;19992;-78
2022/11/02 08:15:36;;;;;;;;;;;;;;;12.69;100.00;100708.75;4975847;28;20374;-78
2022/11/02 08:18:01;;;;;;;;;;;;;;;12.83;100.00;100698.03;4954505;28;20016;-78
2022/11/02 08:20:27;;;;;;;;;;;;;;;13.07;100.00;100707.75;4954619;28;20368;-78
2022/11/02 08:22:52;;;;;;;;;;;;;;;13.39;100.00;100706.13;4954271;28;19961;-78
2022/11/02 08:25:17;;;;;;;;;;;;;;;13.68;100.00;100706.91;4954472;28;19923;-78
2022/11/02 08:27:43;;;;;;;;;;;;;;;13.54;100.00;100704.53;4954615;29;19918;-77
2022/11/02 08:30:08;;;;;;;;;;;;;;;13.73;100.00;100706.38;4972998;28;20443;-91
2022/11/02 08:32:34;;;;;;;;;;;;;;;13.88;100.00;100687.19;4974804;28;20372;-91
2022/11/02 08:34:59;;;;;;;;;;;;;;;13.99;100.00;100699.59;4962731;28;19989;-92
2022/11/02 08:37:24;;;;;;;;;;;;;;;14.30;100.00;100701.88;4968879;28;20060;-92
2022/11/02 08:39:50;;;;;;;;;;;;;;;14.29;100.00;100694.72;4984264;28;19921;-92
2022/11/02 08:42:15;;;;;;;;;;;;;;;14.28;100.00;100693.94;4963111;28;20376;-93
2022/11/02 08:44:41;;;;;;;;;;;;;;;14.48;100.00;100692.97;4975260;28;19918;-93
2022/11/02 08:47:06;;;;;;;;;;;;;;;14.76;100.00;100695.59;4975427;28;19922;-92
2022/11/02 08:49:32;;;;;;;;;;;;;;;15.10;100.00;100697.63;4965935;28;20394;-78
2022/11/02 08:51:57;;;;;;;;;;;;;;;15.16;100.00;100695.06;4959864;28;19918;-78
2022/11/02 08:54:23;;;;;;;;;;;;;;;15.44;100.00;100699.63;4955500;29;19925;-78
2022/11/02 08:56:48;;;;;;;;;;;;;;;15.53;100.00;100702.50;4955296;29;19914;-78
2022/11/02 08:59:13;;;;;;;;;;;;;;;15.41;100.00;100700.53;4955139;28;19918;-78
2022/11/02 09:01:39;;;;;;;;;;;;;;;15.40;100.00;100693.38;4955740;28;20452;-78
2022/11/02 09:04:04;;;;;;;;;;;;;;;15.56;100.00;100695.25;4954760;29;19918;-78
2022/11/02 09:06:30;;;;;;;;;;;;;;;15.63;100.00;100690.16;4955919;28;20292;-91
2022/11/02 09:08:55;;;;;;;;;;;;;;;15.61;100.00;100694.66;4955403;29;20295;-78
2022/11/02 09:11:21;;;;;;;;;;;;;;;15.71;100.00;100691.47;4955352;29;19911;-78
2022/11/02 09:13:46;;;;;;;;;;;;;;;15.83;100.00;100682.22;4955237;28;20292;-78
2022/11/02 09:16:11;;;;;;;;;;;;;;;16.00;100.00;100684.78;4973000;28;19969;-78
2022/11/02 09:18:37;;;;;;;;;;;;;;;16.11;100.00;100685.16;4974034;28;19937;-78
2022/11/02 09:21:03;;;;;;;;;;;;;;;16.26;100.00;100684.13;4974449;28;19921;-78
2022/11/02 09:23:28;;;;;;;;;;;;;;;16.26;100.00;100681.31;4974262;28;19956;-78
2022/11/02 09:25:54;;;;;;;;;;;;;;;16.16;100.00;100682.53;4963677;28;19919;-78
2022/11/02 09:28:19;;;;;;;;;;;;;;;16.25;100.00;100684.59;4957327;28;19923;-91
2022/11/02 09:30:44;;;;;;;;;;;;;;;16.32;100.00;100679.50;4955069;28;19925;-91
2022/11/02 09:33:10;;;;;;;;;;;;;;;16.38;100.00;100682.44;4954812;29;19925;-92
2022/11/02 09:35:54;;;;;;;;;;;;;;;16.29;100.00;100685.25;4970338;28;20014;-92
2022/11/02 09:38:19;;;;;;;;;;;;;;;16.36;100.00;100679.34;4978434;28;19925;-91
2022/11/02 09:40:53;;;;;;;;;;;;;;;16.21;100.00;100669.97;4977560;28;20362;-92
2022/11/02 09:43:22;;;;;;;;;;;;;;;16.13;100.00;100674.28;5007909;28;19918;-92
2022/11/02 09:45:55;;;;;;;;;;;;;;;16.31;100.00;100677.16;4975283;28;19980;-78
2022/11/02 09:48:27;;;;;;;;;;;;;;;16.48;100.00;100675.66;4973337;28;19928;-78
2022/11/02 09:50:57;;;;;;;;;;;;;;;16.83;100.00;100683.84;4973998;28;20009;-78
2022/11/02 09:53:32;;;;;;;;;;;;;;;17.17;100.00;100675.19;4952928;28;20017;-78
2022/11/02 09:55:58;;;;;;;;;;;;;;;17.22;100.00;100666.16;4955933;28;20283;-77
2022/11/02 09:58:24;;;;;;;;;;;;;;;16.97;100.00;100675.63;4970437;28;19922;-78
2022/11/02 10:00:50;;;;;;;;;;;;;;;17.19;100.00;100678.28;4971553;28;19926;-78
2022/11/02 10:03:20;;;;;;;;;;;;;;;17.42;100.00;100676.88;4968643;28;19918;-90
2022/11/02 10:05:58;;;;;;;;;;;;;;;17.69;100.00;100683.25;4969507;28;19918;-78
2022/11/02 10:08:30;;;;;;;;;;;;;;;17.72;100.00;100675.91;4968826;28;19922;-78
2022/11/02 10:11:17;;;;;;;;;;;;;;;17.77;100.00;100680.91;4964035;28;20280;-79
2022/11/02 10:13:42;;;;;;;;;;;;;;;17.94;100.00;100675.72;4972660;28;19929;-77
2022/11/02 10:16:12;;;;;;;;;;;;;;;18.01;100.00;100681.00;4955783;28;19918;-78
2022/11/02 10:18:38;;;;;;;;;;;;;;;18.08;100.00;100680.66;4952345;28;20017;-78
2022/11/02 10:21:11;;;;;;;;;;;;;;;18.21;100.00;100683.25;4953020;28;19953;-78
2022/11/02 10:23:55;;;;;;;;;;;;;;;18.26;100.00;100680.59;4952619;28;20304;-91
2022/11/02 10:26:27;;;;;;;;;;;;;;;18.45;100.00;100684.88;4954404;29;19918;-91
2022/11/02 10:28:57;;;;;;;;;;;;;;;18.56;100.00;100682.34;4955552;28;19918;-91
2022/11/02 10:31:29;;;;;;;;;;;;;;;18.76;100.00;100678.19;4952876;28;20318;-89
2022/11/02 10:33:55;;;;;;;;;;;;;;;19.04;100.00;100685.19;4952186;29;20362;-88
2022/11/02 10:36:20;;;;;;;;;;;;;;;19.29;100.00;100681.84;4962844;28;20065;-88
2022/11/02 10:39:23;;;;;;;;;;;;;;;19.44;100.00;100685.50;4953812;29;19922;-88
2022/11/02 10:41:49;;;;;;;;;;;;;;;19.42;100.00;100679.56;4951993;29;19925;-76
2022/11/02 10:44:14;;;;;;;;;;;;;;;19.58;100.00;100674.72;4950726;29;19930;-88
2022/11/02 10:46:59;;;;;;;;;;;;;;;19.59;100.00;100679.09;4951714;28;19924;-88
2022/11/02 10:49:39;;;;;;;;;;;;;;;19.87;100.00;100686.00;4952387;29;19925;-90
2022/11/02 10:52:04;;;;;;;;;;;;;;;19.67;99.47;100683.09;4954010;28;19918;-92
2022/11/02 10:54:30;;;;;;;;;;;;;;;19.25;100.00;100686.88;4967942;28;20399;-90
2022/11/02 10:56:55;;;;;;;;;;;;;;;19.05;100.00;100672.66;4979331;28;19922;-89
2022/11/02 10:59:24;;;;;;;;;;;;;;;18.98;100.00;100675.84;4981063;28;20394;-90
2022/11/02 11:01:55;;;;;;;;;;;;;;;18.98;100.00;100673.81;4964085;28;19913;-76
2022/11/02 11:04:24;;;;;;;;;;;;;;;18.72;100.00;100683.22;4968016;28;19977;-76
2022/11/02 11:06:50;;;;;;;;;;;;;;;18.50;100.00;100673.00;4970776;28;19910;-76
2022/11/02 11:09:18;;;;;;;;;;;;;;;18.32;100.00;100672.31;4983394;28;19918;-76
2022/11/02 11:12:00;;;;;;;;;;;;;;;18.05;100.00;100664.75;4969288;28;19926;-76
2022/11/02 11:14:29;;;;;;;;;;;;;;;17.94;100.00;100667.31;4954160;28;20387;-76
2022/11/02 11:16:56;;;;;;;;;;;;;;;17.85;100.00;100654.06;4968393;28;19917;-77
2022/11/02 11:19:21;;;;;;;;;;;;;;;17.81;100.00;100666.72;4967981;28;20368;-76
2022/11/02 11:21:48;;;;;;;;;;;;;;;17.60;100.00;100663.63;4968162;28;19918;-89
2022/11/02 11:24:40;;;;;;;;;;;;;;;17.61;100.00;100670.81;4967913;28;19922;-90
2022/11/02 11:27:10;;;;;;;;;;;;;;;17.57;100.00;100663.78;4966732;28;19965;-89
2022/11/02 11:29:37;;;;;;;;;;;;;;;17.70;100.00;100656.78;4969684;28;19918;-89
2022/11/02 11:32:03;;;;;;;;;;;;;;;17.73;100.00;100671.09;4968939;28;19969;-89
2022/11/02 11:34:29;;;;;;;;;;;;;;;17.68;100.00;100670.47;5005543;28;19918;-88
2022/11/02 11:37:13;;;;;;;;;;;;;;;17.62;100.00;100666.75;4994105;28;19910;-89
2022/11/02 11:39:39;;;;;;;;;;;;;;;17.41;100.00;100672.50;4983018;28;19910;-89
2022/11/02 11:42:11;;;;;;;;;;;;;;;17.48;100.00;100655.34;4973266;28;20004;-76
2022/11/02 11:44:37;;;;;;;;;;;;;;;17.39;100.00;100653.34;4921326;28;1409111;-76
2022/11/02 11:47:03;;;;;;;;;;;;;;;17.46;100.00;100658.66;4978733;28;19963;-76
2022/11/02 11:49:29;;;;;;;;;;;;;;;17.45;100.00;100657.09;4969425;28;19926;-76
2022/11/02 11:51:55;;;;;;;;;;;;;;;17.28;100.00;100658.66;4969313;28;19914;-76
2022/11/02 11:54:20;;;;;;;;;;;;;;;17.40;100.00;100659.72;4970681;28;20042;-76
2022/11/02 11:56:46;;;;;;;;;;;;;;;17.31;100.00;100649.28;4970948;28;19953;-77
2022/11/02 11:59:18;;;;;;;;;;;;;;;17.15;100.00;100656.00;4970691;28;19917;-90
2022/11/02 12:01:43;;;;;;;;;;;;;;;17.25;100.00;100654.00;4971858;28;20279;-90
2022/11/02 12:04:08;;;;;;;;;;;;;;;17.24;100.00;100644.78;4957398;28;19913;-90
2022/11/02 12:06:47;;;;;;;;;;;;;;;17.26;100.00;100649.94;4970604;28;19922;-90
2022/11/02 12:09:22;;;;;;;;;;;;;;;17.21;100.00;100642.16;4957007;28;20397;-90
2022/11/02 12:11:51;;;;;;;;;;;;;;;17.11;100.00;100644.16;4971091;28;19922;-90
2022/11/02 12:14:17;;;;;;;;;;;;;;;17.06;100.00;100633.59;4983964;28;19929;-91
2022/11/02 12:17:11;;;;;;;;;;;;;;;17.04;100.00;100632.50;4968357;28;19926;-90
2022/11/02 12:19:43;;;;;;;;;;;;;;;16.96;100.00;100631.25;4922783;28;20017;-90
2022/11/02 12:22:21;;;;;;;;;;;;;;;17.00;100.00;100631.88;4962899;28;19978;-90
2022/11/02 12:25:05;;;;;;;;;;;;;;;16.89;100.00;100623.16;4958390;28;20384;-89
2022/11/02 12:27:34;;;;;;;;;;;;;;;16.90;100.00;100627.53;4959817;28;20418;-90
2022/11/02 12:30:14;;;;;;;;;;;;;;;16.93;100.00;100626.59;4971722;28;20000;-89
2022/11/02 12:32:58;;;;;;;;;;;;;;;16.90;100.00;100610.72;4962626;28;19984;-89
2022/11/02 12:35:26;;;;;;;;;;;;;;;16.96;100.00;100626.44;4968568;28;20789;-77
2022/11/02 12:37:54;;;;;;;;;;;;;;;17.01;100.00;100623.00;4986347;28;19953;-90
2022/11/02 12:40:23;;;;;;;;;;;;;;;16.99;100.00;100621.91;4972017;28;19918;-90
2022/11/02 12:42:51;;;;;;;;;;;;;;;16.77;100.00;100619.25;4959156;28;19920;-91
2022/11/02 12:45:31;;;;;;;;;;;;;;;16.67;100.00;100626.09;4965053;28;19924;-91
2022/11/02 12:47:57;;;;;;;;;;;;;;;16.70;100.00;100614.72;4983708;28;20392;-92
2022/11/02 12:50:22;;;;;;;;;;;;;;;16.73;100.00;100616.63;4962345;28;19933;-91
2022/11/02 12:53:07;;;;;;;;;;;;;;;16.72;100.00;100622.66;4962812;28;19961;-91